createdAt,value
2022-10-03T00:01:01.298Z,7.80
2022-10-03T00:03:34.170Z,7.80
2022-10-03T00:06:09.583Z,7.70
2022-10-03T00:08:50.730Z,7.70
2022-10-03T00:11:25.511Z,7.70
2022-10-03T00:13:58.578Z,7.80
2022-10-03T00:16:30.175Z,7.70
2022-10-03T00:19:02.586Z,7.70
2022-10-03T00:21:37.746Z,7.70
2022-10-03T00:24:12.418Z,7.60
2022-10-03T00:26:46.303Z,7.60
2022-10-03T00:29:33.342Z,7.60
2022-10-03T00:32:05.594Z,7.60
2022-10-03T00:34:40.306Z,7.50
2022-10-03T00:37:25.890Z,7.50
2022-10-03T00:40:12.061Z,7.50
2022-10-03T00:43:06.899Z,7.40
2022-10-03T00:45:49.797Z,7.40
2022-10-03T00:48:33.877Z,7.40
2022-10-03T00:51:12.174Z,7.40
2022-10-03T00:53:46.151Z,7.50
2022-10-03T00:56:32.327Z,7.40
2022-10-03T00:59:08.358Z,7.40
2022-10-03T01:01:40.611Z,7.40
2022-10-03T01:04:17.345Z,7.40
2022-10-03T01:06:47.922Z,7.30
2022-10-03T01:09:30.737Z,7.30
2022-10-03T01:12:05.203Z,7.30
2022-10-03T01:14:41.697Z,7.30
2022-10-03T01:17:13.741Z,7.20
2022-10-03T01:19:53.645Z,7.20
2022-10-03T01:22:36.591Z,7.20
2022-10-03T01:25:13.196Z,7.20
2022-10-03T01:28:01.399Z,7.20
2022-10-03T01:30:36.764Z,7.20
2022-10-03T01:33:10.725Z,7.20
2022-10-03T01:35:45.389Z,7.10
2022-10-03T01:38:20.515Z,7.10
2022-10-03T01:40:52.443Z,7.10
2022-10-03T01:43:22.786Z,7.10
2022-10-03T01:45:59.726Z,7.00
2022-10-03T01:48:32.767Z,7.10
2022-10-03T01:51:02.902Z,7.00
2022-10-03T01:53:36.790Z,7.00
2022-10-03T01:56:09.337Z,7.00
2022-10-03T01:58:45.939Z,6.90
2022-10-03T02:01:17.229Z,6.90
2022-10-03T02:03:48.018Z,6.90
2022-10-03T02:06:20.981Z,7.00
2022-10-03T02:08:53.850Z,7.00
2022-10-03T02:11:29.822Z,6.90
2022-10-03T02:14:00.881Z,6.90
2022-10-03T02:16:35.008Z,6.90
2022-10-03T02:19:08.871Z,6.80
2022-10-03T02:21:47.450Z,6.80
2022-10-03T02:24:23.639Z,6.80
2022-10-03T02:27:09.728Z,6.80
2022-10-03T02:29:58.657Z,6.80
2022-10-03T02:32:47.186Z,6.80
2022-10-03T02:35:26.491Z,6.80
2022-10-03T02:38:05.598Z,6.80
2022-10-03T02:40:49.926Z,6.80
2022-10-03T02:43:33.209Z,6.70
2022-10-03T02:46:31.507Z,6.70
2022-10-03T02:49:05.913Z,6.70
2022-10-03T02:51:54.818Z,6.70
2022-10-03T02:54:38.915Z,6.70
2022-10-03T02:57:22.557Z,6.70
2022-10-03T03:00:07.656Z,6.70
2022-10-03T03:02:59.074Z,6.70
2022-10-03T03:05:33.838Z,6.60
2022-10-03T03:08:15.085Z,6.60
2022-10-03T03:11:13.872Z,6.60
2022-10-03T03:13:57.583Z,6.60
2022-10-03T03:16:49.951Z,6.60
2022-10-03T03:19:24.606Z,6.50
2022-10-03T03:21:54.977Z,6.50
2022-10-03T03:24:37.991Z,6.50
2022-10-03T03:27:14.635Z,6.50
2022-10-03T03:29:45.791Z,6.50
2022-10-03T03:32:18.661Z,6.50
2022-10-03T03:34:50.592Z,6.50
2022-10-03T03:37:21.911Z,6.40
2022-10-03T03:39:58.610Z,6.30
2022-10-03T03:42:40.486Z,6.40
2022-10-03T03:45:29.668Z,6.40
2022-10-03T03:48:15.659Z,6.40
2022-10-03T03:50:53.026Z,6.30
2022-10-03T03:53:35.899Z,6.20
2022-10-03T03:56:15.074Z,6.30
2022-10-03T03:58:51.419Z,6.30
2022-10-03T04:01:33.696Z,6.20
2022-10-03T04:04:06.234Z,6.30
2022-10-03T04:06:37.330Z,6.30
2022-10-03T04:09:17.097Z,6.30
2022-10-03T04:11:51.770Z,6.30
2022-10-03T04:14:37.425Z,6.20
2022-10-03T04:17:36.464Z,6.20
2022-10-03T04:20:14.642Z,6.30
2022-10-03T04:22:54.186Z,6.30
2022-10-03T04:25:29.422Z,6.30
2022-10-03T04:28:18.442Z,6.00
2022-10-03T04:30:53.394Z,5.90
2022-10-03T04:33:29.828Z,6.10
2022-10-03T04:36:16.640Z,6.20
2022-10-03T04:38:50.225Z,6.10
2022-10-03T04:41:23.701Z,6.20
2022-10-03T04:43:58.260Z,6.10
2022-10-03T04:46:30.678Z,6.10
2022-10-03T04:49:04.175Z,6.10
2022-10-03T04:51:40.365Z,6.10
2022-10-03T04:54:17.190Z,6.00
2022-10-03T04:56:50.617Z,6.00
2022-10-03T04:59:28.082Z,5.80
2022-10-03T05:01:59.298Z,5.80
2022-10-03T05:04:31.979Z,5.90
2022-10-03T05:07:08.431Z,6.00
2022-10-03T05:09:40.724Z,6.00
2022-10-03T05:12:14.380Z,6.00
2022-10-03T05:14:57.720Z,6.00
2022-10-03T05:17:29.431Z,6.00
2022-10-03T05:20:23.026Z,5.90
2022-10-03T05:22:56.369Z,6.10
2022-10-03T05:25:29.442Z,6.00
2022-10-03T05:28:03.390Z,6.10
2022-10-03T05:30:38.000Z,6.00
2022-10-03T05:33:09.185Z,6.00
2022-10-03T05:35:47.310Z,6.10
2022-10-03T05:38:35.430Z,6.10
2022-10-03T05:41:05.575Z,6.20
2022-10-03T05:43:45.297Z,6.20
2022-10-03T05:46:20.610Z,6.30
2022-10-03T05:48:50.263Z,6.30
2022-10-03T05:51:39.808Z,6.30
2022-10-03T05:54:28.916Z,6.40
2022-10-03T05:57:07.978Z,6.50
2022-10-03T05:59:51.665Z,6.60
2022-10-03T06:02:34.571Z,6.60
2022-10-03T06:05:11.648Z,6.70
2022-10-03T06:07:46.182Z,6.70
2022-10-03T06:10:36.327Z,6.60
2022-10-03T06:13:11.294Z,6.60
2022-10-03T06:15:45.272Z,6.60
2022-10-03T06:18:23.176Z,6.70
2022-10-03T06:21:03.817Z,6.80
2022-10-03T06:23:46.834Z,6.80
2022-10-03T06:26:29.021Z,6.80
2022-10-03T06:29:12.039Z,6.80
2022-10-03T06:31:54.837Z,6.90
2022-10-03T06:34:41.919Z,7.00
2022-10-03T06:37:24.768Z,7.10
2022-10-03T06:40:16.665Z,7.20
2022-10-03T06:43:05.452Z,7.20
2022-10-03T06:45:51.228Z,7.30
2022-10-03T06:48:37.069Z,7.60
2022-10-03T06:51:17.811Z,7.90
2022-10-03T06:54:02.901Z,8.10
2022-10-03T06:56:47.632Z,8.30
2022-10-03T06:59:28.699Z,8.30
2022-10-03T07:02:15.463Z,8.60
2022-10-03T07:04:52.718Z,8.90
2022-10-03T07:07:34.853Z,9.10
2022-10-03T07:10:17.229Z,9.20
2022-10-03T07:12:56.486Z,9.30
2022-10-03T07:16:10.698Z,9.50
2022-10-03T07:18:45.151Z,9.70
2022-10-03T07:21:43.275Z,9.70
2022-10-03T07:24:35.241Z,9.70
2022-10-03T07:27:14.463Z,9.60
2022-10-03T07:29:57.919Z,9.70
2022-10-03T07:32:59.151Z,9.70
2022-10-03T07:35:58.949Z,9.50
2022-10-03T07:38:58.283Z,9.50
2022-10-03T07:41:32.609Z,9.50
2022-10-03T07:44:18.658Z,9.40
2022-10-03T07:47:05.579Z,9.50
2022-10-03T07:49:44.286Z,9.60
2022-10-03T07:52:32.823Z,9.60
2022-10-03T07:55:14.561Z,9.60
2022-10-03T07:57:57.501Z,9.60
2022-10-03T08:00:28.013Z,9.70
2022-10-03T08:03:16.887Z,9.60
2022-10-03T08:05:50.872Z,9.60
2022-10-03T08:08:36.540Z,9.70
2022-10-03T08:11:14.341Z,9.70
2022-10-03T08:13:55.138Z,9.70
2022-10-03T08:16:42.338Z,9.70
2022-10-03T08:19:28.132Z,9.80
2022-10-03T08:22:00.152Z,10.00
2022-10-03T08:24:50.027Z,9.90
2022-10-03T08:27:26.029Z,10.00
2022-10-03T08:30:05.606Z,10.00
2022-10-03T08:32:39.712Z,10.00
2022-10-03T08:35:32.102Z,10.00
2022-10-03T08:38:28.161Z,10.00
2022-10-03T08:41:20.175Z,10.10
2022-10-03T08:44:08.991Z,10.10
2022-10-03T08:46:55.619Z,10.20
2022-10-03T08:49:36.663Z,10.20
2022-10-03T08:52:21.498Z,10.30
2022-10-03T08:55:02.209Z,10.50
2022-10-03T08:57:41.110Z,10.70
2022-10-03T09:00:12.230Z,10.80
2022-10-03T09:03:26.990Z,10.80
2022-10-03T09:06:04.283Z,10.90
2022-10-03T09:08:46.693Z,11.10
2022-10-03T09:11:35.279Z,11.20
2022-10-03T09:14:25.193Z,11.20
2022-10-03T09:17:00.144Z,11.10
2022-10-03T09:19:52.520Z,11.10
2022-10-03T09:22:29.162Z,11.10
2022-10-03T09:25:28.713Z,11.30
2022-10-03T09:28:15.044Z,11.40
2022-10-03T09:30:49.353Z,11.50
2022-10-03T09:33:47.570Z,11.70
2022-10-03T09:36:34.382Z,11.70
2022-10-03T09:39:26.663Z,11.80
2022-10-03T09:42:19.217Z,11.60
2022-10-03T09:44:57.941Z,11.80
2022-10-03T09:47:43.729Z,11.90
2022-10-03T09:50:29.674Z,11.80
2022-10-03T09:53:14.092Z,11.90
2022-10-03T09:55:52.200Z,12.10
2022-10-03T09:58:33.473Z,12.30
2022-10-03T10:01:12.556Z,12.40
2022-10-03T10:03:54.029Z,12.50
2022-10-03T10:06:28.498Z,12.40
2022-10-03T10:09:11.351Z,12.50
2022-10-03T10:11:57.898Z,12.40
2022-10-03T10:14:31.519Z,12.30
2022-10-03T10:17:23.777Z,12.40
2022-10-03T10:20:01.443Z,12.50
2022-10-03T10:22:50.037Z,12.70
2022-10-03T10:25:36.771Z,12.70
2022-10-03T10:28:20.486Z,12.90
2022-10-03T10:31:14.743Z,12.80
2022-10-03T10:34:01.629Z,12.90
2022-10-03T10:36:59.278Z,12.80
2022-10-03T10:39:42.094Z,13.10
2022-10-03T10:42:28.740Z,13.00
2022-10-03T10:45:14.479Z,13.00
2022-10-03T10:47:56.908Z,13.20
2022-10-03T10:50:43.627Z,13.40
2022-10-03T10:53:29.779Z,13.20
2022-10-03T10:56:30.992Z,13.20
2022-10-03T10:59:24.850Z,13.20
2022-10-03T11:02:13.687Z,13.20
2022-10-03T11:04:58.135Z,13.40
2022-10-03T11:07:57.756Z,13.30
2022-10-03T11:10:34.178Z,13.20
2022-10-03T11:13:20.928Z,13.40
2022-10-03T11:16:21.313Z,13.60
2022-10-03T11:19:21.185Z,13.60
2022-10-03T11:22:13.254Z,13.60
2022-10-03T11:25:14.349Z,13.60
2022-10-03T11:28:05.918Z,13.70
2022-10-03T11:30:53.052Z,13.50
2022-10-03T11:33:36.069Z,13.50
2022-10-03T11:36:12.279Z,13.70
2022-10-03T11:38:45.176Z,13.80
2022-10-03T11:41:19.187Z,13.70
2022-10-03T11:44:04.371Z,13.90
2022-10-03T11:46:41.426Z,13.90
2022-10-03T11:49:16.622Z,14.00
2022-10-03T11:51:51.515Z,14.30
2022-10-03T11:54:31.421Z,14.30
2022-10-03T11:57:02.816Z,14.40
2022-10-03T11:59:37.523Z,14.60
2022-10-03T12:02:23.282Z,14.20
2022-10-03T12:04:54.116Z,14.20
2022-10-03T12:07:46.331Z,14.40
2022-10-03T12:10:19.458Z,14.40
2022-10-03T12:12:50.349Z,14.60
2022-10-03T12:15:36.051Z,14.40
2022-10-03T12:18:09.432Z,14.30
2022-10-03T12:20:46.514Z,14.70
2022-10-03T12:23:20.854Z,14.80
2022-10-03T12:25:50.256Z,14.80
2022-10-03T12:28:21.165Z,14.80
2022-10-03T12:30:57.138Z,14.90
2022-10-03T12:33:33.079Z,15.20
2022-10-03T12:36:04.707Z,15.20
2022-10-03T12:38:44.069Z,15.10
2022-10-03T12:41:18.502Z,15.10
2022-10-03T12:43:53.604Z,15.20
2022-10-03T12:46:28.553Z,15.20
2022-10-03T12:49:02.260Z,15.40
2022-10-03T12:51:36.904Z,15.70
2022-10-03T12:54:09.172Z,15.30
2022-10-03T12:56:43.462Z,15.20
2022-10-03T12:59:17.207Z,15.50
2022-10-03T13:01:54.552Z,15.70
2022-10-03T13:04:29.935Z,15.40
2022-10-03T13:07:05.921Z,15.10
2022-10-03T13:09:44.813Z,15.10
2022-10-03T13:12:18.416Z,15.30
2022-10-03T13:15:02.450Z,15.20
2022-10-03T13:17:36.373Z,15.30
2022-10-03T13:20:10.832Z,15.60
2022-10-03T13:22:43.273Z,15.60
2022-10-03T13:25:16.044Z,15.30
2022-10-03T13:27:46.923Z,15.30
2022-10-03T13:30:18.518Z,15.20
2022-10-03T13:32:50.828Z,15.40
2022-10-03T13:35:48.778Z,15.40
2022-10-03T13:38:34.774Z,15.30
2022-10-03T13:41:09.906Z,14.60
2022-10-03T13:43:39.603Z,14.70
2022-10-03T13:46:12.829Z,14.70
2022-10-03T13:48:41.809Z,14.70
2022-10-03T13:51:16.358Z,14.90
2022-10-03T13:53:54.012Z,15.10
2022-10-03T13:56:29.483Z,14.90
2022-10-03T13:59:02.459Z,15.20
2022-10-03T14:01:35.423Z,15.20
2022-10-03T14:04:23.162Z,15.20
2022-10-03T14:06:56.294Z,15.00
2022-10-03T14:09:39.971Z,14.90
2022-10-03T14:12:13.272Z,14.70
2022-10-03T14:14:46.628Z,14.70
2022-10-03T14:17:16.542Z,14.60
2022-10-03T14:19:52.705Z,14.90
2022-10-03T14:22:27.257Z,14.90
2022-10-03T14:25:00.837Z,14.70
2022-10-03T14:27:49.011Z,14.60
2022-10-03T14:30:18.145Z,14.50
2022-10-03T14:32:54.257Z,14.50
2022-10-03T14:35:38.165Z,14.70
2022-10-03T14:38:15.738Z,14.50
2022-10-03T14:40:46.971Z,14.50
2022-10-03T14:43:31.745Z,14.50
2022-10-03T14:46:02.126Z,14.30
2022-10-03T14:48:31.613Z,14.50
2022-10-03T14:51:07.798Z,14.40
2022-10-03T14:53:39.882Z,14.50
2022-10-03T14:56:09.913Z,14.50
2022-10-03T14:58:39.706Z,14.40
2022-10-03T15:01:13.480Z,14.70
2022-10-03T15:03:46.775Z,14.70
2022-10-03T15:06:22.887Z,14.50
2022-10-03T15:08:54.630Z,14.40
2022-10-03T15:11:26.699Z,14.30
2022-10-03T15:13:56.902Z,14.30
2022-10-03T15:16:25.591Z,14.70
2022-10-03T15:18:56.326Z,14.50
2022-10-03T15:21:26.072Z,14.40
2022-10-03T15:23:57.311Z,14.10
2022-10-03T15:26:29.422Z,13.90
2022-10-03T15:29:01.092Z,13.60
2022-10-03T15:31:33.781Z,13.60
2022-10-03T15:34:03.434Z,13.60
2022-10-03T15:36:33.433Z,13.30
2022-10-03T15:39:04.241Z,13.40
2022-10-03T15:41:36.376Z,13.20
2022-10-03T15:44:05.408Z,13.00
2022-10-03T15:46:35.261Z,13.00
2022-10-03T15:49:06.894Z,12.90
2022-10-03T15:51:38.931Z,12.90
2022-10-03T15:54:10.175Z,12.70
2022-10-03T15:56:40.516Z,12.80
2022-10-03T15:59:09.844Z,12.70
2022-10-03T16:01:39.684Z,12.60
2022-10-03T16:04:16.442Z,12.40
2022-10-03T16:06:49.379Z,12.60
2022-10-03T16:09:23.706Z,12.40
2022-10-03T16:11:56.159Z,12.40
2022-10-03T16:14:25.154Z,12.30
2022-10-03T16:16:55.498Z,12.30
2022-10-03T16:19:29.285Z,12.10
2022-10-03T16:22:05.366Z,12.10
2022-10-03T16:24:36.776Z,12.20
2022-10-03T16:27:08.905Z,12.10
2022-10-03T16:29:40.627Z,12.10
2022-10-03T16:32:11.311Z,12.10
2022-10-03T16:34:43.480Z,12.10
2022-10-03T16:37:17.961Z,12.20
2022-10-03T16:39:51.901Z,12.20
2022-10-03T16:42:22.630Z,11.90
2022-10-03T16:44:52.199Z,12.00
2022-10-03T16:47:31.473Z,12.00
2022-10-03T16:50:18.046Z,11.80
2022-10-03T16:52:48.200Z,11.80
2022-10-03T16:55:20.427Z,11.70
2022-10-03T16:57:51.090Z,11.70
2022-10-03T17:00:22.246Z,11.70
2022-10-03T17:02:50.751Z,11.70
2022-10-03T17:05:19.690Z,11.70
2022-10-03T17:07:49.599Z,11.70
2022-10-03T17:10:29.633Z,11.60
2022-10-03T17:13:03.804Z,11.60
2022-10-03T17:15:34.179Z,11.60
2022-10-03T17:18:09.394Z,11.70
2022-10-03T17:20:41.105Z,11.60
2022-10-03T17:23:12.197Z,11.70
2022-10-03T17:25:44.759Z,11.60
2022-10-03T17:28:16.091Z,11.70
2022-10-03T17:30:47.649Z,11.60
2022-10-03T17:33:20.036Z,11.60
2022-10-03T17:35:55.067Z,11.60
2022-10-03T17:41:22.370Z,11.60
2022-10-03T17:43:59.730Z,11.60
2022-10-03T17:46:32.411Z,11.50
2022-10-03T17:49:04.317Z,11.50
2022-10-03T17:51:39.552Z,11.40
2022-10-03T17:54:12.891Z,11.40
2022-10-03T17:56:44.868Z,11.40
2022-10-03T17:59:15.517Z,11.50
2022-10-03T18:01:45.395Z,11.50
2022-10-03T18:04:17.344Z,11.50
2022-10-03T18:06:50.698Z,11.50
2022-10-03T18:09:25.829Z,11.50
2022-10-03T18:11:58.962Z,11.60
2022-10-03T18:14:32.118Z,11.60
2022-10-03T18:17:05.180Z,11.60
2022-10-03T18:19:41.516Z,11.60
2022-10-03T18:22:15.829Z,11.60
2022-10-03T18:24:55.379Z,11.60
2022-10-03T18:27:39.005Z,11.60
2022-10-03T18:30:08.282Z,11.60
2022-10-03T18:32:39.786Z,11.60
2022-10-03T18:35:15.425Z,11.60
2022-10-03T18:38:12.626Z,11.70
2022-10-03T18:40:43.474Z,11.60
2022-10-03T18:43:23.889Z,11.60
2022-10-03T18:45:56.064Z,11.60
2022-10-03T18:48:31.289Z,11.60
2022-10-03T18:51:03.113Z,11.60
2022-10-03T18:53:34.417Z,11.50
2022-10-03T18:56:04.534Z,11.50
2022-10-03T18:58:39.332Z,11.40
2022-10-03T19:01:13.869Z,11.30
2022-10-03T19:03:44.297Z,11.40
2022-10-03T19:06:19.281Z,11.40
2022-10-03T19:08:50.354Z,11.40
2022-10-03T19:11:23.249Z,11.50
2022-10-03T19:13:59.108Z,11.50
2022-10-03T19:16:43.401Z,11.50
2022-10-03T19:19:13.945Z,11.60
2022-10-03T19:21:43.286Z,11.60
2022-10-03T19:24:14.916Z,11.60
2022-10-03T19:26:46.431Z,11.60
2022-10-03T19:29:23.544Z,11.50
2022-10-03T19:32:00.649Z,11.50
2022-10-03T19:34:31.709Z,11.40
2022-10-03T19:37:01.026Z,11.40
2022-10-03T19:39:30.423Z,11.40
2022-10-03T19:41:59.774Z,11.50
2022-10-03T19:44:31.877Z,11.50
2022-10-03T19:47:03.478Z,11.50
2022-10-03T19:49:33.858Z,11.50
2022-10-03T19:52:12.529Z,11.50
2022-10-03T19:54:51.893Z,11.50
2022-10-03T19:57:21.472Z,11.40
2022-10-03T19:59:53.086Z,11.50
2022-10-03T20:02:25.164Z,11.50
2022-10-03T20:04:54.350Z,11.50
2022-10-03T20:07:31.099Z,11.50
2022-10-03T20:10:01.514Z,11.50
2022-10-03T20:12:34.494Z,11.60
2022-10-03T20:15:19.962Z,11.60
2022-10-03T20:17:49.991Z,11.60
2022-10-03T20:20:20.084Z,11.70
2022-10-03T20:22:49.472Z,11.70
2022-10-03T20:25:26.446Z,11.70
2022-10-03T20:28:01.074Z,11.70
2022-10-03T20:30:36.057Z,11.70
2022-10-03T20:33:04.850Z,11.60
2022-10-03T20:35:35.719Z,11.70
2022-10-03T20:38:07.481Z,11.60
2022-10-03T20:40:37.431Z,11.50
2022-10-03T20:43:14.411Z,11.50
2022-10-03T20:45:44.981Z,11.50
2022-10-03T20:48:15.503Z,11.60
2022-10-03T20:50:45.701Z,11.60
2022-10-03T20:53:20.723Z,11.60
2022-10-03T20:55:53.321Z,11.60
2022-10-03T20:58:28.375Z,11.60
2022-10-03T21:01:02.038Z,11.60
2022-10-03T21:03:34.354Z,11.60
2022-10-03T21:06:03.587Z,11.60
2022-10-03T21:08:36.251Z,11.60
2022-10-03T21:11:06.009Z,11.60
2022-10-03T21:13:37.081Z,11.60
2022-10-03T21:16:16.638Z,11.60
2022-10-03T21:18:46.966Z,11.70
2022-10-03T21:21:16.745Z,11.70
2022-10-03T21:23:46.779Z,11.70
2022-10-03T21:26:15.201Z,11.60
2022-10-03T21:28:43.300Z,11.70
2022-10-03T21:31:17.239Z,11.70
2022-10-03T21:33:48.789Z,11.80
2022-10-03T21:36:19.619Z,11.80
2022-10-03T21:38:50.783Z,11.70
2022-10-03T21:41:30.748Z,11.70
2022-10-03T21:44:00.113Z,11.60
2022-10-03T21:46:35.915Z,11.60
2022-10-03T21:49:08.320Z,11.60
2022-10-03T21:51:41.856Z,11.60
2022-10-03T21:54:28.918Z,11.60
2022-10-03T21:56:59.558Z,11.60
2022-10-03T21:59:39.933Z,11.60
2022-10-03T22:02:12.652Z,11.60
2022-10-03T22:04:43.322Z,11.60
2022-10-03T22:07:14.794Z,11.60
2022-10-03T22:09:47.303Z,11.60
2022-10-03T22:12:15.518Z,11.60
2022-10-03T22:14:47.117Z,11.50
2022-10-03T22:17:21.161Z,11.40
2022-10-03T22:19:52.234Z,11.40
2022-10-03T22:22:43.870Z,11.30
2022-10-03T22:25:17.089Z,11.30
2022-10-03T22:27:49.598Z,11.30
2022-10-03T22:30:21.107Z,11.30
2022-10-03T22:32:57.324Z,11.30
2022-10-03T22:35:35.336Z,11.30
2022-10-03T22:38:03.553Z,11.30
2022-10-03T22:40:32.485Z,11.30
2022-10-03T22:43:03.282Z,11.20
2022-10-03T22:45:32.820Z,11.30
2022-10-03T22:48:04.532Z,11.30
2022-10-03T22:50:33.623Z,11.30
2022-10-03T22:53:03.508Z,11.40
2022-10-03T22:55:32.744Z,11.40
2022-10-03T22:58:02.346Z,11.40
2022-10-03T23:00:32.466Z,11.40
2022-10-03T23:03:05.071Z,11.40
2022-10-03T23:05:44.367Z,11.40
2022-10-03T23:08:16.498Z,11.50
2022-10-03T23:10:49.480Z,11.40
2022-10-03T23:13:21.135Z,11.40
2022-10-03T23:15:50.221Z,11.40
2022-10-03T23:18:27.295Z,11.30
2022-10-03T23:21:04.017Z,11.30
2022-10-03T23:23:35.417Z,11.30
2022-10-03T23:26:11.122Z,11.40
2022-10-03T23:28:47.702Z,11.40
2022-10-03T23:31:30.598Z,11.40
2022-10-03T23:33:59.226Z,11.40
2022-10-03T23:36:31.358Z,11.30
2022-10-03T23:39:03.246Z,11.30
2022-10-03T23:41:42.106Z,11.20
2022-10-03T23:44:26.339Z,11.30
2022-10-03T23:46:54.695Z,11.30
2022-10-03T23:49:23.073Z,11.30
2022-10-03T23:51:52.658Z,11.30
2022-10-03T23:54:23.892Z,11.30
2022-10-03T23:56:52.027Z,11.30
2022-10-03T23:59:23.571Z,11.30
